sensor_id;sensor_type;location;lat;lon;timestamp;noise_LAeq;noise_LA_min;noise_LA_max;noise_LA01;noise_LA95
37223;Laerm;28026;48.562;14.440;2024-01-16T00:00:47;63.03;39.46;92.20;;
37223;Laerm;28026;48.562;14.440;2024-01-16T00:03:17;62.16;39.34;93.10;;
37223;Laerm;28026;48.562;14.440;2024-01-16T00:05:48;65.13;37.88;91.80;;
37223;Laerm;28026;48.562;14.440;2024-01-16T00:08:19;70.97;38.37;94.91;;
37223;Laerm;28026;48.562;14.440;2024-01-16T00:10:50;71.30;37.70;95.21;;
37223;Laerm;28026;48.562;14.440;2024-01-16T00:13:21;66.32;36.69;100.00;;
37223;Laerm;28026;48.562;14.440;2024-01-16T00:15:52;67.16;38.37;91.61;;
37223;Laerm;28026;48.562;14.440;2024-01-16T00:18:23;59.09;40.13;88.93;;
37223;Laerm;28026;48.562;14.440;2024-01-16T00:20:54;64.60;36.91;95.10;;
37223;Laerm;28026;48.562;14.440;2024-01-16T00:23:25;50.65;38.05;74.10;;
37223;Laerm;28026;48.562;14.440;2024-01-16T00:25:56;65.82;38.37;93.06;;
37223;Laerm;28026;48.562;14.440;2024-01-16T00:28:27;55.86;38.21;83.91;;
37223;Laerm;28026;48.562;14.440;2024-01-16T00:30:58;63.66;38.95;92.11;;
37223;Laerm;28026;48.562;14.440;2024-01-16T00:33:29;69.09;37.88;92.51;;
37223;Laerm;28026;48.562;14.440;2024-01-16T00:35:59;70.68;39.08;95.84;;
37223;Laerm;28026;48.562;14.440;2024-01-16T00:38:34;64.60;35.36;90.89;;
37223;Laerm;28026;48.562;14.440;2024-01-16T00:41:04;69.12;37.88;100.72;;
37223;Laerm;28026;48.562;14.440;2024-01-16T00:43:35;66.76;38.21;89.55;;
37223;Laerm;28026;48.562;14.440;2024-01-16T00:46:06;72.94;39.34;95.99;;
37223;Laerm;28026;48.562;14.440;2024-01-16T00:48:37;70.39;40.33;93.40;;
37223;Laerm;28026;48.562;14.440;2024-01-16T00:51:09;71.76;41.75;94.28;;
37223;Laerm;28026;48.562;14.440;2024-01-16T00:53:41;71.49;39.46;98.53;;
37223;Laerm;28026;48.562;14.440;2024-01-16T00:56:13;64.47;40.23;88.63;;
37223;Laerm;28026;48.562;14.440;2024-01-16T00:58:44;66.01;37.88;95.40;;
37223;Laerm;28026;48.562;14.440;2024-01-16T01:01:14;63.44;36.91;87.32;;
37223;Laerm;28026;48.562;14.440;2024-01-16T01:03:45;46.48;37.12;67.52;;
37223;Laerm;28026;48.562;14.440;2024-01-16T01:06:16;64.02;38.81;94.55;;
37223;Laerm;28026;48.562;14.440;2024-01-16T01:08:47;65.25;37.12;91.80;;
37223;Laerm;28026;48.562;14.440;2024-01-16T01:11:18;54.03;36.91;79.08;;
37223;Laerm;28026;48.562;14.440;2024-01-16T01:13:49;50.44;36.91;72.83;;
37223;Laerm;28026;48.562;14.440;2024-01-16T01:16:20;65.65;37.52;91.71;;
37223;Laerm;28026;48.562;14.440;2024-01-16T01:18:50;54.90;36.45;83.22;;
37223;Laerm;28026;48.562;14.440;2024-01-16T01:21:21;58.09;35.66;83.50;;
37223;Laerm;28026;48.562;14.440;2024-01-16T01:23:52;55.99;36.20;81.03;;
37223;Laerm;28026;48.562;14.440;2024-01-16T01:26:23;65.59;35.66;92.47;;
37223;Laerm;28026;48.562;14.440;2024-01-16T01:28:54;56.24;36.91;80.35;;
37223;Laerm;28026;48.562;14.440;2024-01-16T01:31:25;57.04;37.32;80.21;;
37223;Laerm;28026;48.562;14.440;2024-01-16T01:33:56;61.72;35.36;87.82;;
37223;Laerm;28026;48.562;14.440;2024-01-16T01:36:27;60.70;34.69;83.03;;
37223;Laerm;28026;48.562;14.440;2024-01-16T01:38:58;57.82;35.94;82.99;;
37223;Laerm;28026;48.562;14.440;2024-01-16T01:41:29;74.05;36.45;98.21;;
37223;Laerm;28026;48.562;14.440;2024-01-16T01:44:00;53.53;35.66;80.96;;
37223;Laerm;28026;48.562;14.440;2024-01-16T01:46:34;58.84;35.94;87.35;;
37223;Laerm;28026;48.562;14.440;2024-01-16T01:49:07;61.98;35.94;92.76;;
37223;Laerm;28026;48.562;14.440;2024-01-16T01:51:37;56.83;35.04;85.26;;
37223;Laerm;28026;48.562;14.440;2024-01-16T01:54:09;67.85;35.94;92.54;;
37223;Laerm;28026;48.562;14.440;2024-01-16T01:56:47;63.78;37.52;88.37;;
37223;Laerm;28026;48.562;14.440;2024-01-16T01:59:23;58.37;36.69;83.14;;
37223;Laerm;28026;48.562;14.440;2024-01-16T02:01:55;66.37;36.69;94.72;;
37223;Laerm;28026;48.562;14.440;2024-01-16T02:04:29;59.09;36.45;89.13;;
37223;Laerm;28026;48.562;14.440;2024-01-16T02:07:01;58.68;38.05;81.01;;
37223;Laerm;28026;48.562;14.440;2024-01-16T02:09:32;65.66;35.66;90.11;;
37223;Laerm;28026;48.562;14.440;2024-01-16T02:12:06;62.13;36.45;84.46;;
37223;Laerm;28026;48.562;14.440;2024-01-16T02:14:37;69.77;37.12;95.86;;
37223;Laerm;28026;48.562;14.440;2024-01-16T02:17:08;68.40;34.69;94.24;;
37223;Laerm;28026;48.562;14.440;2024-01-16T02:19:39;49.23;34.31;75.46;;
37223;Laerm;28026;48.562;14.440;2024-01-16T02:22:19;55.03;35.66;82.93;;
37223;Laerm;28026;48.562;14.440;2024-01-16T02:24:52;58.72;35.04;82.14;;
37223;Laerm;28026;48.562;14.440;2024-01-16T02:27:23;66.62;35.94;95.39;;
37223;Laerm;28026;48.562;14.440;2024-01-16T02:29:53;61.68;36.69;87.17;;
37223;Laerm;28026;48.562;14.440;2024-01-16T02:32:24;54.12;35.36;85.49;;
37223;Laerm;28026;48.562;14.440;2024-01-16T02:34:55;52.41;35.66;79.87;;
37223;Laerm;28026;48.562;14.440;2024-01-16T02:37:26;60.68;35.36;87.90;;
37223;Laerm;28026;48.562;14.440;2024-01-16T02:39:57;45.97;35.66;62.67;;
37223;Laerm;28026;48.562;14.440;2024-01-16T02:42:30;53.06;35.36;78.76;;
37223;Laerm;28026;48.562;14.440;2024-01-16T02:45:01;60.31;36.45;82.92;;
37223;Laerm;28026;48.562;14.440;2024-01-16T02:47:34;43.53;36.20;65.31;;
37223;Laerm;28026;48.562;14.440;2024-01-16T02:50:06;55.44;35.94;81.49;;
37223;Laerm;28026;48.562;14.440;2024-01-16T02:52:38;61.42;36.45;88.19;;
37223;Laerm;28026;48.562;14.440;2024-01-16T02:55:10;60.36;35.36;87.63;;
37223;Laerm;28026;48.562;14.440;2024-01-16T02:57:40;67.48;37.12;98.38;;
37223;Laerm;28026;48.562;14.440;2024-01-16T03:00:12;56.17;37.70;82.97;;
37223;Laerm;28026;48.562;14.440;2024-01-16T03:02:44;54.08;35.66;83.89;;
37223;Laerm;28026;48.562;14.440;2024-01-16T03:05:16;56.93;36.20;86.70;;
37223;Laerm;28026;48.562;14.440;2024-01-16T03:07:46;53.94;35.36;80.34;;
37223;Laerm;28026;48.562;14.440;2024-01-16T03:10:17;51.04;36.77;78.62;;
37223;Laerm;28026;48.562;14.440;2024-01-16T03:12:48;60.09;36.45;85.14;;
37223;Laerm;28026;48.562;14.440;2024-01-16T03:15:19;40.31;35.31;50.93;;
37223;Laerm;28026;48.562;14.440;2024-01-16T03:17:50;44.27;36.69;62.36;;
37223;Laerm;28026;48.562;14.440;2024-01-16T03:20:21;44.25;35.94;67.58;;
37223;Laerm;28026;48.562;14.440;2024-01-16T03:22:54;57.37;35.59;88.53;;
37223;Laerm;28026;48.562;14.440;2024-01-16T03:25:25;50.14;36.20;75.10;;
37223;Laerm;28026;48.562;14.440;2024-01-16T03:27:56;63.52;36.45;87.22;;
37223;Laerm;28026;48.562;14.440;2024-01-16T03:30:26;54.20;34.69;79.56;;
37223;Laerm;28026;48.562;14.440;2024-01-16T03:32:58;48.39;36.45;71.32;;
37223;Laerm;28026;48.562;14.440;2024-01-16T03:35:29;63.24;35.94;88.14;;
37223;Laerm;28026;48.562;14.440;2024-01-16T03:38:00;53.72;36.91;82.05;;
37223;Laerm;28026;48.562;14.440;2024-01-16T03:40:31;60.26;38.67;90.42;;
37223;Laerm;28026;48.562;14.440;2024-01-16T03:43:06;56.02;36.20;88.90;;
37223;Laerm;28026;48.562;14.440;2024-01-16T03:45:36;44.10;36.20;64.33;;
37223;Laerm;28026;48.562;14.440;2024-01-16T03:48:07;51.72;37.12;76.86;;
37223;Laerm;28026;48.562;14.440;2024-01-16T03:50:38;44.31;35.36;63.97;;
37223;Laerm;28026;48.562;14.440;2024-01-16T03:53:14;67.86;37.52;90.02;;
37223;Laerm;28026;48.562;14.440;2024-01-16T03:55:45;67.03;35.66;94.58;;
37223;Laerm;28026;48.562;14.440;2024-01-16T03:58:16;60.71;37.70;90.99;;
37223;Laerm;28026;48.562;14.440;2024-01-16T04:00:47;63.40;36.91;94.19;;
37223;Laerm;28026;48.562;14.440;2024-01-16T04:03:20;55.81;36.20;84.07;;
37223;Laerm;28026;48.562;14.440;2024-01-16T04:05:51;60.94;37.70;87.93;;
37223;Laerm;28026;48.562;14.440;2024-01-16T04:08:22;60.64;36.45;90.66;;
37223;Laerm;28026;48.562;14.440;2024-01-16T04:10:53;44.39;36.20;69.34;;
37223;Laerm;28026;48.562;14.440;2024-01-16T04:13:24;43.57;35.94;63.56;;
37223;Laerm;28026;48.562;14.440;2024-01-16T04:15:55;55.39;35.94;82.89;;
37223;Laerm;28026;48.562;14.440;2024-01-16T04:18:26;48.90;36.91;74.74;;
37223;Laerm;28026;48.562;14.440;2024-01-16T04:20:56;61.40;36.20;88.96;;
37223;Laerm;28026;48.562;14.440;2024-01-16T04:23:27;62.74;35.66;95.88;;
37223;Laerm;28026;48.562;14.440;2024-01-16T04:25:59;46.58;37.32;70.88;;
37223;Laerm;28026;48.562;14.440;2024-01-16T04:28:30;56.90;39.08;81.96;;
37223;Laerm;28026;48.562;14.440;2024-01-16T04:31:01;52.22;36.10;82.64;;
37223;Laerm;28026;48.562;14.440;2024-01-16T04:33:32;47.58;37.52;69.47;;
37223;Laerm;28026;48.562;14.440;2024-01-16T04:36:03;61.20;37.12;91.73;;
37223;Laerm;28026;48.562;14.440;2024-01-16T04:38:34;63.51;36.45;90.95;;
37223;Laerm;28026;48.562;14.440;2024-01-16T04:41:05;45.55;35.04;70.23;;
37223;Laerm;28026;48.562;14.440;2024-01-16T04:43:36;56.36;36.69;86.81;;
37223;Laerm;28026;48.562;14.440;2024-01-16T04:46:07;48.01;35.94;73.94;;
37223;Laerm;28026;48.562;14.440;2024-01-16T04:48:38;60.52;36.20;89.66;;
37223;Laerm;28026;48.562;14.440;2024-01-16T04:51:09;45.74;37.32;69.83;;
37223;Laerm;28026;48.562;14.440;2024-01-16T04:53:40;58.27;36.56;82.93;;
37223;Laerm;28026;48.562;14.440;2024-01-16T04:56:11;55.92;34.69;83.32;;
37223;Laerm;28026;48.562;14.440;2024-01-16T04:58:42;44.58;33.44;69.52;;
37223;Laerm;28026;48.562;14.440;2024-01-16T05:01:13;64.34;34.69;89.49;;
37223;Laerm;28026;48.562;14.440;2024-01-16T05:03:44;48.85;35.94;76.49;;
37223;Laerm;28026;48.562;14.440;2024-01-16T05:06:15;52.78;34.69;83.12;;
37223;Laerm;28026;48.562;14.440;2024-01-16T05:08:46;42.64;35.94;61.01;;
37223;Laerm;28026;48.562;14.440;2024-01-16T05:11:18;57.97;34.69;88.96;;
37223;Laerm;28026;48.562;14.440;2024-01-16T05:13:49;57.08;34.69;87.39;;
37223;Laerm;28026;48.562;14.440;2024-01-16T05:16:20;43.64;35.94;55.97;;
37223;Laerm;28026;48.562;14.440;2024-01-16T05:18:51;41.77;35.66;61.04;;
37223;Laerm;28026;48.562;14.440;2024-01-16T05:21:22;43.14;36.91;50.79;;
37223;Laerm;28026;48.562;14.440;2024-01-16T05:23:52;51.17;35.04;74.65;;
37223;Laerm;28026;48.562;14.440;2024-01-16T05:26:23;42.25;35.94;65.02;;
37223;Laerm;28026;48.562;14.440;2024-01-16T05:28:54;53.71;35.94;79.96;;
37223;Laerm;28026;48.562;14.440;2024-01-16T05:31:25;43.20;34.69;57.35;;
37223;Laerm;28026;48.562;14.440;2024-01-16T05:33:56;48.10;35.94;71.62;;
37223;Laerm;28026;48.562;14.440;2024-01-16T05:36:28;62.69;36.45;89.26;;
37223;Laerm;28026;48.562;14.440;2024-01-16T05:38:59;55.64;35.66;83.92;;
37223;Laerm;28026;48.562;14.440;2024-01-16T05:41:34;47.02;36.45;71.26;;
37223;Laerm;28026;48.562;14.440;2024-01-16T05:44:06;48.02;36.20;73.66;;
37223;Laerm;28026;48.562;14.440;2024-01-16T05:46:36;50.10;36.45;77.02;;
37223;Laerm;28026;48.562;14.440;2024-01-16T05:49:07;42.63;36.20;68.03;;
37223;Laerm;28026;48.562;14.440;2024-01-16T05:51:38;40.15;35.36;54.71;;
37223;Laerm;28026;48.562;14.440;2024-01-16T05:54:09;52.04;35.36;76.85;;
37223;Laerm;28026;48.562;14.440;2024-01-16T05:56:40;47.98;35.36;73.43;;
37223;Laerm;28026;48.562;14.440;2024-01-16T05:59:11;43.27;35.04;69.52;;
37223;Laerm;28026;48.562;14.440;2024-01-16T06:01:42;44.41;35.04;73.84;;
37223;Laerm;28026;48.562;14.440;2024-01-16T06:04:12;50.47;35.36;77.53;;
37223;Laerm;28026;48.562;14.440;2024-01-16T06:06:43;61.31;37.12;87.00;;
37223;Laerm;28026;48.562;14.440;2024-01-16T06:09:15;51.69;36.20;77.25;;
37223;Laerm;28026;48.562;14.440;2024-01-16T06:11:46;45.99;35.04;61.61;;
37223;Laerm;28026;48.562;14.440;2024-01-16T06:14:18;50.42;39.08;74.64;;
37223;Laerm;28026;48.562;14.440;2024-01-16T06:16:52;48.83;36.69;77.54;;
37223;Laerm;28026;48.562;14.440;2024-01-16T06:19:23;46.29;36.20;73.12;;
37223;Laerm;28026;48.562;14.440;2024-01-16T06:21:53;50.65;36.45;76.57;;
37223;Laerm;28026;48.562;14.440;2024-01-16T06:24:24;49.96;35.04;75.71;;
37223;Laerm;28026;48.562;14.440;2024-01-16T06:26:55;42.59;35.36;62.79;;
37223;Laerm;28026;48.562;14.440;2024-01-16T06:29:26;40.80;35.04;62.86;;
37223;Laerm;28026;48.562;14.440;2024-01-16T06:31:57;45.36;35.94;67.59;;
37223;Laerm;28026;48.562;14.440;2024-01-16T06:34:28;57.04;36.20;83.43;;
37223;Laerm;28026;48.562;14.440;2024-01-16T06:36:59;61.42;34.31;93.24;;
37223;Laerm;28026;48.562;14.440;2024-01-16T06:39:30;59.35;35.66;85.94;;
37223;Laerm;28026;48.562;14.440;2024-01-16T06:42:02;68.00;36.69;91.91;;
37223;Laerm;28026;48.562;14.440;2024-01-16T06:44:35;54.19;37.32;80.00;;
37223;Laerm;28026;48.562;14.440;2024-01-16T06:47:06;40.24;34.31;59.41;;
37223;Laerm;28026;48.562;14.440;2024-01-16T06:49:36;60.30;35.04;92.27;;
37223;Laerm;28026;48.562;14.440;2024-01-16T06:52:08;72.17;37.32;96.31;;
37223;Laerm;28026;48.562;14.440;2024-01-16T06:54:40;65.54;38.37;89.34;;
37223;Laerm;28026;48.562;14.440;2024-01-16T06:57:11;64.93;36.45;92.48;;
37223;Laerm;28026;48.562;14.440;2024-01-16T06:59:42;57.28;34.69;82.82;;
37223;Laerm;28026;48.562;14.440;2024-01-16T07:02:13;66.15;35.04;92.69;;
37223;Laerm;28026;48.562;14.440;2024-01-16T07:04:43;63.87;35.04;87.87;;
37223;Laerm;28026;48.562;14.440;2024-01-16T07:07:14;64.90;35.66;88.09;;
37223;Laerm;28026;48.562;14.440;2024-01-16T07:09:46;53.09;35.04;82.42;;
37223;Laerm;28026;48.562;14.440;2024-01-16T07:12:17;49.45;35.04;75.90;;
37223;Laerm;28026;48.562;14.440;2024-01-16T07:14:48;58.50;37.12;84.08;;
37223;Laerm;28026;48.562;14.440;2024-01-16T07:17:19;57.57;35.59;81.80;;
37223;Laerm;28026;48.562;14.440;2024-01-16T07:19:50;61.38;35.36;89.94;;
37223;Laerm;28026;48.562;14.440;2024-01-16T07:22:20;57.14;35.31;84.02;;
37223;Laerm;28026;48.562;14.440;2024-01-16T07:24:51;64.34;35.66;86.74;;
37223;Laerm;28026;48.562;14.440;2024-01-16T07:27:22;64.44;36.91;90.44;;
37223;Laerm;28026;48.562;14.440;2024-01-16T07:29:53;65.21;39.34;91.71;;
37223;Laerm;28026;48.562;14.440;2024-01-16T07:32:24;63.43;39.46;89.20;;
37223;Laerm;28026;48.562;14.440;2024-01-16T07:34:55;50.75;35.66;76.24;;
37223;Laerm;28026;48.562;14.440;2024-01-16T07:37:26;51.53;36.45;84.67;;
37223;Laerm;28026;48.562;14.440;2024-01-16T07:39:56;60.08;36.91;83.99;;
37223;Laerm;28026;48.562;14.440;2024-01-16T07:42:27;57.95;36.77;83.99;;
37223;Laerm;28026;48.562;14.440;2024-01-16T07:45:05;63.37;36.20;92.23;;
37223;Laerm;28026;48.562;14.440;2024-01-16T07:47:36;57.26;37.12;81.56;;
37223;Laerm;28026;48.562;14.440;2024-01-16T07:50:07;56.88;36.91;82.15;;
37223;Laerm;28026;48.562;14.440;2024-01-16T07:52:38;56.19;37.52;79.07;;
37223;Laerm;28026;48.562;14.440;2024-01-16T07:55:10;55.02;37.32;79.18;;
37223;Laerm;28026;48.562;14.440;2024-01-16T07:57:40;65.05;37.52;94.44;;
37223;Laerm;28026;48.562;14.440;2024-01-16T08:00:12;56.44;37.70;80.39;;
37223;Laerm;28026;48.562;14.440;2024-01-16T08:02:44;57.15;37.32;79.10;;
37223;Laerm;28026;48.562;14.440;2024-01-16T08:05:15;58.74;36.20;84.26;;
37223;Laerm;28026;48.562;14.440;2024-01-16T08:07:46;62.80;35.36;92.91;;
37223;Laerm;28026;48.562;14.440;2024-01-16T08:10:17;60.72;37.32;84.13;;
37223;Laerm;28026;48.562;14.440;2024-01-16T08:12:48;63.16;35.94;85.59;;
37223;Laerm;28026;48.562;14.440;2024-01-16T08:15:19;61.49;36.45;88.97;;
37223;Laerm;28026;48.562;14.440;2024-01-16T08:17:49;58.73;34.69;85.98;;
37223;Laerm;28026;48.562;14.440;2024-01-16T08:20:20;47.64;34.69;70.47;;
37223;Laerm;28026;48.562;14.440;2024-01-16T08:22:52;57.50;35.04;83.09;;
37223;Laerm;28026;48.562;14.440;2024-01-16T08:25:24;51.20;35.66;78.81;;
37223;Laerm;28026;48.562;14.440;2024-01-16T08:27:54;56.93;36.69;82.60;;
37223;Laerm;28026;48.562;14.440;2024-01-16T08:30:25;53.30;34.31;81.44;;
37223;Laerm;28026;48.562;14.440;2024-01-16T08:32:56;57.36;35.36;85.18;;
37223;Laerm;28026;48.562;14.440;2024-01-16T08:35:28;59.52;35.04;88.88;;
37223;Laerm;28026;48.562;14.440;2024-01-16T08:37:59;52.80;35.36;82.77;;
37223;Laerm;28026;48.562;14.440;2024-01-16T08:40:30;53.99;35.66;79.41;;
37223;Laerm;28026;48.562;14.440;2024-01-16T08:43:01;51.30;36.20;75.30;;
37223;Laerm;28026;48.562;14.440;2024-01-16T08:45:32;53.20;35.04;76.72;;
37223;Laerm;28026;48.562;14.440;2024-01-16T08:48:03;53.63;36.20;82.42;;
37223;Laerm;28026;48.562;14.440;2024-01-16T08:50:34;58.08;34.69;84.37;;
37223;Laerm;28026;48.562;14.440;2024-01-16T08:53:05;63.73;34.69;89.19;;
37223;Laerm;28026;48.562;14.440;2024-01-16T08:55:37;61.98;36.69;89.31;;
37223;Laerm;28026;48.562;14.440;2024-01-16T08:58:08;63.78;35.94;88.33;;
37223;Laerm;28026;48.562;14.440;2024-01-16T09:00:39;59.45;35.04;84.90;;
37223;Laerm;28026;48.562;14.440;2024-01-16T09:03:12;52.79;35.94;77.88;;
37223;Laerm;28026;48.562;14.440;2024-01-16T09:05:42;50.23;36.45;75.99;;
37223;Laerm;28026;48.562;14.440;2024-01-16T09:08:13;54.33;35.04;84.34;;
37223;Laerm;28026;48.562;14.440;2024-01-16T09:10:44;56.84;35.36;80.78;;
37223;Laerm;28026;48.562;14.440;2024-01-16T09:13:15;59.60;35.94;83.92;;
37223;Laerm;28026;48.562;14.440;2024-01-16T09:15:48;49.16;36.10;70.85;;
37223;Laerm;28026;48.562;14.440;2024-01-16T09:18:19;52.79;35.04;82.25;;
37223;Laerm;28026;48.562;14.440;2024-01-16T09:20:50;58.93;35.36;87.88;;
37223;Laerm;28026;48.562;14.440;2024-01-16T09:23:21;56.89;36.20;80.02;;
37223;Laerm;28026;48.562;14.440;2024-01-16T09:25:52;53.45;36.20;77.24;;
37223;Laerm;28026;48.562;14.440;2024-01-16T09:28:23;51.05;35.66;73.85;;
37223;Laerm;28026;48.562;14.440;2024-01-16T09:30:55;52.63;34.69;82.05;;
37223;Laerm;28026;48.562;14.440;2024-01-16T09:33:26;57.95;34.69;88.66;;
37223;Laerm;28026;48.562;14.440;2024-01-16T09:35:57;57.02;35.36;84.97;;
37223;Laerm;28026;48.562;14.440;2024-01-16T09:38:28;51.77;35.36;79.13;;
37223;Laerm;28026;48.562;14.440;2024-01-16T09:41:00;50.60;35.94;75.65;;
37223;Laerm;28026;48.562;14.440;2024-01-16T09:43:34;55.70;35.04;83.38;;
37223;Laerm;28026;48.562;14.440;2024-01-16T09:46:07;51.30;35.04;85.84;;
37223;Laerm;28026;48.562;14.440;2024-01-16T09:48:41;42.92;34.31;65.62;;
37223;Laerm;28026;48.562;14.440;2024-01-16T09:51:13;44.74;35.04;69.28;;
37223;Laerm;28026;48.562;14.440;2024-01-16T09:53:46;54.05;34.31;83.97;;
37223;Laerm;28026;48.562;14.440;2024-01-16T09:56:23;42.26;33.90;68.87;;
37223;Laerm;28026;48.562;14.440;2024-01-16T09:59:05;43.32;33.90;71.56;;
37223;Laerm;28026;48.562;14.440;2024-01-16T10:01:38;51.63;33.44;79.45;;
37223;Laerm;28026;48.562;14.440;2024-01-16T10:04:09;51.94;34.31;79.53;;
37223;Laerm;28026;48.562;14.440;2024-01-16T10:06:45;45.51;34.31;75.51;;
37223;Laerm;28026;48.562;14.440;2024-01-16T10:09:19;41.02;35.36;62.38;;
37223;Laerm;28026;48.562;14.440;2024-01-16T10:11:51;54.27;35.36;80.66;;
37223;Laerm;28026;48.562;14.440;2024-01-16T10:14:24;64.01;36.69;89.06;;
37223;Laerm;28026;48.562;14.440;2024-01-16T10:17:00;53.67;36.45;79.86;;
37223;Laerm;28026;48.562;14.440;2024-01-16T10:19:52;56.48;35.04;87.43;;
37223;Laerm;28026;48.562;14.440;2024-01-16T10:22:25;59.22;35.36;89.20;;
37223;Laerm;28026;48.562;14.440;2024-01-16T10:25:12;56.66;35.04;82.02;;
37223;Laerm;28026;48.562;14.440;2024-01-16T10:27:48;58.97;35.94;86.11;;
37223;Laerm;28026;48.562;14.440;2024-01-16T10:30:21;48.14;37.52;77.29;;
37223;Laerm;28026;48.562;14.440;2024-01-16T10:32:54;56.80;37.32;88.54;;
37223;Laerm;28026;48.562;14.440;2024-01-16T10:35:24;54.90;36.20;80.17;;
37223;Laerm;28026;48.562;14.440;2024-01-16T10:37:56;56.71;37.32;85.23;;
37223;Laerm;28026;48.562;14.440;2024-01-16T10:40:27;47.25;34.31;74.63;;
37223;Laerm;28026;48.562;14.440;2024-01-16T10:43:04;43.60;34.31;64.27;;
37223;Laerm;28026;48.562;14.440;2024-01-16T10:45:35;53.85;36.91;79.67;;
37223;Laerm;28026;48.562;14.440;2024-01-16T10:48:08;49.88;34.31;72.53;;
37223;Laerm;28026;48.562;14.440;2024-01-16T10:50:39;46.71;35.66;73.77;;
37223;Laerm;28026;48.562;14.440;2024-01-16T10:53:15;61.11;35.94;92.25;;
37223;Laerm;28026;48.562;14.440;2024-01-16T10:55:51;53.01;34.31;78.53;;
37223;Laerm;28026;48.562;14.440;2024-01-16T10:58:24;42.86;34.69;67.32;;
37223;Laerm;28026;48.562;14.440;2024-01-16T11:01:02;46.43;36.45;72.59;;
37223;Laerm;28026;48.562;14.440;2024-01-16T11:03:43;41.28;32.93;65.68;;
37223;Laerm;28026;48.562;14.440;2024-01-16T11:06:17;46.48;33.44;72.94;;
37223;Laerm;28026;48.562;14.440;2024-01-16T11:08:49;48.13;35.86;78.89;;
37223;Laerm;28026;48.562;14.440;2024-01-16T11:11:22;44.18;38.05;63.45;;
37223;Laerm;28026;48.562;14.440;2024-01-16T11:13:54;44.94;35.66;69.12;;
37223;Laerm;28026;48.562;14.440;2024-01-16T11:16:28;50.87;35.36;75.51;;
37223;Laerm;28026;48.562;14.440;2024-01-16T11:19:04;45.91;33.90;71.49;;
37223;Laerm;28026;48.562;14.440;2024-01-16T11:21:39;45.42;34.69;71.31;;
37223;Laerm;28026;48.562;14.440;2024-01-16T11:24:11;46.90;34.31;73.90;;
37223;Laerm;28026;48.562;14.440;2024-01-16T11:26:43;44.48;33.44;71.96;;
37223;Laerm;28026;48.562;14.440;2024-01-16T11:29:40;49.82;33.44;80.37;;
37223;Laerm;28026;48.562;14.440;2024-01-16T11:32:34;58.85;32.93;90.24;;
37223;Laerm;28026;48.562;14.440;2024-01-16T11:35:07;47.11;33.44;76.26;;
37223;Laerm;28026;48.562;14.440;2024-01-16T11:37:42;49.59;33.90;75.85;;
37223;Laerm;28026;48.562;14.440;2024-01-16T11:40:20;41.64;32.35;67.64;;
37223;Laerm;28026;48.562;14.440;2024-01-16T11:42:54;48.96;33.44;73.77;;
37223;Laerm;28026;48.562;14.440;2024-01-16T11:48:15;49.41;35.04;75.87;;
37223;Laerm;28026;48.562;14.440;2024-01-16T11:50:47;60.27;36.45;82.41;;
37223;Laerm;28026;48.562;14.440;2024-01-16T11:53:38;50.53;33.90;80.01;;
37223;Laerm;28026;48.562;14.440;2024-01-16T11:59:38;50.31;32.93;78.52;;
37223;Laerm;28026;48.562;14.440;2024-01-16T12:02:21;48.13;34.69;74.57;;
37223;Laerm;28026;48.562;14.440;2024-01-16T12:04:54;54.33;35.94;79.34;;
37223;Laerm;28026;48.562;14.440;2024-01-16T12:07:27;52.41;35.04;78.90;;
37223;Laerm;28026;48.562;14.440;2024-01-16T12:10:01;47.45;34.31;75.81;;
37223;Laerm;28026;48.562;14.440;2024-01-16T12:12:32;50.57;35.04;73.79;;
37223;Laerm;28026;48.562;14.440;2024-01-16T12:15:04;53.13;35.04;77.46;;
37223;Laerm;28026;48.562;14.440;2024-01-16T12:17:35;44.09;33.44;67.47;;
37223;Laerm;28026;48.562;14.440;2024-01-16T12:20:18;54.16;32.35;87.50;;
37223;Laerm;28026;48.562;14.440;2024-01-16T12:23:00;44.21;33.90;68.43;;
37223;Laerm;28026;48.562;14.440;2024-01-16T12:25:36;53.14;35.94;84.84;;
37223;Laerm;28026;48.562;14.440;2024-01-16T12:28:08;45.73;35.66;69.97;;
37223;Laerm;28026;48.562;14.440;2024-01-16T12:30:50;50.35;33.90;77.87;;
37223;Laerm;28026;48.562;14.440;2024-01-16T12:33:22;49.71;34.69;77.55;;
37223;Laerm;28026;48.562;14.440;2024-01-16T12:36:03;47.97;33.44;72.09;;
37223;Laerm;28026;48.562;14.440;2024-01-16T12:38:34;47.67;34.31;70.72;;
37223;Laerm;28026;48.562;14.440;2024-01-16T12:41:11;54.25;35.04;83.29;;
37223;Laerm;28026;48.562;14.440;2024-01-16T12:43:42;48.99;33.90;72.51;;
37223;Laerm;28026;48.562;14.440;2024-01-16T12:46:13;50.33;33.90;78.40;;
37223;Laerm;28026;48.562;14.440;2024-01-16T12:48:45;58.37;35.01;83.31;;
37223;Laerm;28026;48.562;14.440;2024-01-16T12:51:22;46.27;34.31;76.29;;
37223;Laerm;28026;48.562;14.440;2024-01-16T12:53:53;42.96;33.90;66.44;;
37223;Laerm;28026;48.562;14.440;2024-01-16T12:56:24;58.32;32.93;88.46;;
37223;Laerm;28026;48.562;14.440;2024-01-16T12:58:55;40.34;34.69;63.06;;
37223;Laerm;28026;48.562;14.440;2024-01-16T13:01:29;40.29;33.90;54.76;;
37223;Laerm;28026;48.562;14.440;2024-01-16T13:04:04;41.24;33.90;62.39;;
37223;Laerm;28026;48.562;14.440;2024-01-16T13:06:34;38.85;32.93;48.97;;
37223;Laerm;28026;48.562;14.440;2024-01-16T13:09:11;45.80;35.36;73.38;;
37223;Laerm;28026;48.562;14.440;2024-01-16T13:11:55;39.13;33.44;56.46;;
37223;Laerm;28026;48.562;14.440;2024-01-16T13:14:26;44.72;33.90;72.88;;
37223;Laerm;28026;48.562;14.440;2024-01-16T13:16:56;42.67;35.36;66.77;;
37223;Laerm;28026;48.562;14.440;2024-01-16T13:19:27;39.61;33.90;46.78;;
37223;Laerm;28026;48.562;14.440;2024-01-16T13:22:03;41.46;35.04;48.15;;
37223;Laerm;28026;48.562;14.440;2024-01-16T13:24:34;39.16;32.93;64.45;;
37223;Laerm;28026;48.562;14.440;2024-01-16T13:27:06;38.22;33.44;56.08;;
37223;Laerm;28026;48.562;14.440;2024-01-16T13:29:39;38.17;32.35;50.31;;
37223;Laerm;28026;48.562;14.440;2024-01-16T13:32:10;39.43;33.90;62.96;;
37223;Laerm;28026;48.562;14.440;2024-01-16T13:34:41;39.77;33.44;58.16;;
37223;Laerm;28026;48.562;14.440;2024-01-16T13:37:22;40.93;34.69;50.89;;
37223;Laerm;28026;48.562;14.440;2024-01-16T13:39:53;38.97;33.44;43.99;;
37223;Laerm;28026;48.562;14.440;2024-01-16T13:42:24;39.32;32.93;43.72;;
37223;Laerm;28026;48.562;14.440;2024-01-16T13:44:55;39.48;33.90;48.37;;
37223;Laerm;28026;48.562;14.440;2024-01-16T13:47:26;40.35;34.69;51.31;;
37223;Laerm;28026;48.562;14.440;2024-01-16T13:49:57;40.51;34.69;56.45;;
37223;Laerm;28026;48.562;14.440;2024-01-16T13:52:28;39.81;33.44;44.90;;
37223;Laerm;28026;48.562;14.440;2024-01-16T13:54:59;41.07;34.31;50.19;;
37223;Laerm;28026;48.562;14.440;2024-01-16T13:57:32;39.04;32.35;44.47;;
37223;Laerm;28026;48.562;14.440;2024-01-16T14:00:10;41.93;35.36;50.54;;
37223;Laerm;28026;48.562;14.440;2024-01-16T14:02:48;38.35;32.93;42.98;;
37223;Laerm;28026;48.562;14.440;2024-01-16T14:05:20;39.77;33.44;49.94;;